Unser Platzwetter:
(um das Bild zu aktualisieren oder bei unvollständig geladenem Bild den Reload-Button des Browsers drücken)

 

 
[Quelle: ADDS]
METAR
ETNN 100320Z 31013KT 9999 -SHRA FEW020 BKN027 BKN060 05/02 Q1019 BLU =
TAF
SR / SS: 07:24 / 15:27 UTC (Vettweiss-Soller 2018-12-10)
 

Hier gibt es ein Wetterdiagramm der letzten 7 Tage.

Hier geht es zu unserer Webcam.

Satelitenbild:

aktuelles Meteosat-Bild von www.wetterzentrale.de